createdAt,value
2022-08-19T00:23:57.000Z,969.7
2022-08-19T00:53:58.000Z,969.9
2022-08-19T01:24:01.000Z,969.8
2022-08-19T01:54:02.637Z,969.6
2022-08-19T02:24:06.000Z,969.5
2022-08-19T02:54:16.000Z,969.5
2022-08-19T03:24:19.000Z,969.5
2022-08-19T03:54:23.000Z,969.7
2022-08-19T04:24:29.000Z,969.7
2022-08-19T04:54:31.000Z,969.6
2022-08-19T05:24:41.000Z,970.3
2022-08-19T05:54:43.000Z,970.6
2022-08-19T06:24:45.000Z,970.6
2022-08-19T06:54:55.000Z,970.7
2022-08-19T07:24:57.000Z,970.8
2022-08-19T07:54:59.000Z,970.8
2022-08-19T08:25:03.000Z,970.8
2022-08-19T08:55:05.000Z,971.0
2022-08-19T09:25:14.000Z,970.9
2022-08-19T09:55:15.000Z,971.2
2022-08-19T10:25:21.000Z,971.3
2022-08-19T10:55:23.000Z,971.3
2022-08-19T11:25:26.000Z,971.1
2022-08-19T11:55:27.000Z,971.2
2022-08-19T12:25:32.000Z,971.2
2022-08-19T12:55:38.000Z,971.3
2022-08-19T13:25:48.363Z,971.4
2022-08-19T13:55:49.537Z,971.3
2022-08-19T14:25:52.542Z,971.1
2022-08-19T14:56:02.506Z,971.1
2022-08-19T15:26:07.535Z,971.3
2022-08-19T15:56:09.512Z,971.2
2022-08-19T16:26:14.163Z,971.2
2022-08-19T16:56:24.313Z,971.6
2022-08-19T17:26:31.209Z,971.8
2022-08-19T17:56:36.169Z,971.8
2022-08-19T18:26:39.323Z,972.1
2022-08-19T18:56:46.147Z,972.4
2022-08-19T19:26:51.189Z,972.8
2022-08-19T19:56:55.241Z,973
2022-08-19T20:26:58.279Z,973.3
2022-08-19T20:57:06.423Z,973.3
2022-08-19T21:27:16.306Z,973.3
2022-08-19T21:57:19.355Z,973.6
2022-08-19T22:27:19.000Z,973.6
2022-08-19T22:57:29.000Z,973.8
2022-08-19T23:27:33.000Z,973.6
2022-08-19T23:57:37.000Z,973.6
